createdAt,value
2023-04-14T00:01:25.475Z,8.75
2023-04-14T00:06:26.627Z,8.80
2023-04-14T00:11:27.653Z,8.81
2023-04-14T00:16:32.177Z,8.80
2023-04-14T00:21:33.118Z,8.74
2023-04-14T00:26:34.186Z,8.72
2023-04-14T00:31:35.361Z,8.75
2023-04-14T00:36:36.437Z,8.79
2023-04-14T00:41:37.358Z,8.90
2023-04-14T00:46:40.155Z,8.92
2023-04-14T00:51:45.088Z,8.79
2023-04-14T00:56:46.583Z,8.68
2023-04-14T01:01:47.614Z,8.74
2023-04-14T01:06:48.601Z,8.77
2023-04-14T01:12:12.936Z,8.78
2023-04-14T01:17:31.812Z,8.78
2023-04-14T01:22:38.398Z,8.79
2023-04-14T01:28:04.569Z,8.89
2023-04-14T01:33:10.347Z,9.04
2023-04-14T01:38:18.528Z,9.13
2023-04-14T01:43:26.395Z,9.18
2023-04-14T01:48:28.366Z,9.12
2023-04-14T01:53:32.042Z,9.14
2023-04-14T01:58:35.576Z,9.20
2023-04-14T02:03:38.129Z,9.20
2023-04-14T02:08:41.522Z,9.20
2023-04-14T02:13:43.096Z,9.21
2023-04-14T02:18:45.671Z,9.18
2023-04-14T02:23:46.732Z,9.06
2023-04-14T02:29:06.194Z,9.00
2023-04-14T02:34:10.572Z,8.88
2023-04-14T02:39:17.043Z,8.79
2023-04-14T02:44:21.931Z,8.75
2023-04-14T02:49:24.278Z,8.68
2023-04-14T02:54:26.531Z,8.64
2023-04-14T02:59:29.308Z,8.60
2023-04-14T03:04:37.493Z,8.60
2023-04-14T03:09:42.050Z,8.57
2023-04-14T03:14:44.027Z,8.52
2023-04-14T03:19:47.825Z,8.50
2023-04-14T03:24:50.188Z,8.50
2023-04-14T03:29:54.709Z,8.49
2023-04-14T03:34:58.180Z,8.43
2023-04-14T03:40:05.027Z,8.45
2023-04-14T03:45:07.452Z,8.51
2023-04-14T03:50:10.686Z,8.49
2023-04-14T03:55:15.052Z,8.47
2023-04-14T04:00:19.271Z,8.46
2023-04-14T04:05:21.449Z,8.41
2023-04-14T04:10:23.096Z,8.40
2023-04-14T04:15:28.242Z,8.40
2023-04-14T04:20:31.864Z,8.36
2023-04-14T04:25:36.610Z,8.33
2023-04-14T04:30:46.616Z,8.35
2023-04-14T04:35:48.524Z,8.34
2023-04-14T04:40:50.074Z,8.34
2023-04-14T04:45:58.553Z,8.34
2023-04-14T04:51:00.066Z,8.36
2023-04-14T04:56:01.761Z,8.37
2023-04-14T05:01:09.813Z,8.38
2023-04-14T05:06:11.702Z,8.45
2023-04-14T05:11:12.851Z,8.50
2023-04-14T05:16:14.486Z,8.52
2023-04-14T05:21:15.456Z,8.56
2023-04-14T05:26:39.030Z,8.60
2023-04-14T05:31:37.352Z,8.68
2023-04-14T05:36:38.326Z,8.74
2023-04-14T05:41:39.268Z,8.81
2023-04-14T05:46:40.720Z,8.87
2023-04-14T05:51:42.168Z,8.90
2023-04-14T05:56:43.140Z,8.99
2023-04-14T06:01:44.336Z,9.11
2023-04-14T06:06:45.480Z,9.18
2023-04-14T06:11:46.433Z,9.28
2023-04-14T06:16:47.549Z,9.42
2023-04-14T06:21:48.673Z,9.46
2023-04-14T06:26:49.714Z,9.50
2023-04-14T06:31:51.262Z,9.48
2023-04-14T06:36:52.442Z,9.47
2023-04-14T06:41:53.577Z,9.38
2023-04-14T06:46:56.344Z,9.58
2023-04-14T06:51:58.783Z,9.62
2023-04-14T06:57:01.291Z,9.58
2023-04-14T07:02:02.920Z,9.51
2023-04-14T07:07:04.189Z,9.75
2023-04-14T07:12:05.441Z,9.80
2023-04-14T07:17:06.451Z,9.93
2023-04-14T07:22:08.318Z,10.13
2023-04-14T07:27:18.718Z,10.34
2023-04-14T07:32:19.691Z,10.55
2023-04-14T07:37:20.947Z,10.75
2023-04-14T07:42:21.927Z,10.79
2023-04-14T07:47:23.001Z,10.78
2023-04-14T07:52:24.039Z,10.93
2023-04-14T07:57:24.980Z,11.14
2023-04-14T08:02:26.521Z,11.37
2023-04-14T08:07:27.951Z,11.53
2023-04-14T08:12:29.050Z,11.65
2023-04-14T08:17:30.550Z,11.73
2023-04-14T08:22:31.665Z,11.88
2023-04-14T08:27:32.671Z,11.91
2023-04-14T08:32:33.646Z,12.00
2023-04-14T08:37:34.874Z,12.25
2023-04-14T08:42:35.819Z,12.87
2023-04-14T08:47:39.146Z,13.53
2023-04-14T08:52:40.938Z,14.02
2023-04-14T08:57:43.396Z,14.48
2023-04-14T09:02:46.385Z,14.95
2023-04-14T09:07:47.445Z,15.25
2023-04-14T09:12:49.346Z,15.30
2023-04-14T09:17:50.544Z,15.39
2023-04-14T09:22:52.752Z,15.50
2023-04-14T09:27:54.101Z,15.50
2023-04-14T09:32:56.209Z,15.56
2023-04-14T09:37:57.166Z,15.51
2023-04-14T09:42:59.996Z,15.37
2023-04-14T09:48:07.514Z,15.29
2023-04-14T09:53:08.605Z,15.27
2023-04-14T09:58:09.996Z,15.17
2023-04-14T10:03:11.141Z,14.95
2023-04-14T10:08:12.821Z,14.83
2023-04-14T10:13:15.303Z,14.75
2023-04-14T10:18:16.881Z,14.51
2023-04-14T10:23:18.026Z,14.26
2023-04-14T10:28:19.343Z,14.28
2023-04-14T10:33:20.932Z,14.23
2023-04-14T10:38:22.319Z,14.27
2023-04-14T10:43:27.411Z,14.39
2023-04-14T10:48:40.523Z,14.56
2023-04-14T10:53:46.814Z,14.78
2023-04-14T10:58:58.316Z,14.94
2023-04-14T11:04:18.786Z,15.12
2023-04-14T11:09:31.360Z,15.38
2023-04-14T11:14:35.178Z,15.83
2023-04-14T11:19:36.179Z,16.30
2023-04-14T11:24:38.011Z,16.53
2023-04-14T11:29:39.150Z,16.47
2023-04-14T11:34:40.349Z,16.54
2023-04-14T11:39:41.429Z,16.84
2023-04-14T11:44:42.402Z,17.23
2023-04-14T11:49:43.354Z,17.54
2023-04-14T11:54:44.489Z,17.66
2023-04-14T11:59:46.970Z,17.84
2023-04-14T12:04:50.639Z,17.93
2023-04-14T12:09:52.054Z,17.68
2023-04-14T12:14:53.199Z,17.56
2023-04-14T12:19:54.263Z,17.61
2023-04-14T12:24:56.377Z,17.60
2023-04-14T12:29:57.782Z,17.49
2023-04-14T12:35:00.669Z,17.55
2023-04-14T12:40:05.707Z,17.64
2023-04-14T12:45:07.665Z,17.53
2023-04-14T12:50:27.352Z,17.53
2023-04-14T12:55:30.864Z,17.44
2023-04-14T13:00:31.883Z,17.21
2023-04-14T13:05:33.000Z,17.02
2023-04-14T13:10:33.960Z,16.92
2023-04-14T13:16:14.501Z,16.91
2023-04-14T13:20:56.895Z,16.95
2023-04-14T13:25:58.812Z,17.18
2023-04-14T13:31:00.317Z,17.43
2023-04-14T13:36:02.393Z,17.53
2023-04-14T13:41:03.730Z,17.46
2023-04-14T13:46:04.735Z,17.32
2023-04-14T13:51:05.782Z,17.30
2023-04-14T13:56:06.807Z,17.24
2023-04-14T14:01:10.069Z,17.18
2023-04-14T14:06:13.474Z,17.15
2023-04-14T14:11:14.900Z,17.03
2023-04-14T14:16:33.230Z,16.82
2023-04-14T14:21:37.572Z,16.64
2023-04-14T14:26:38.631Z,16.59
2023-04-14T14:31:39.672Z,16.66
2023-04-14T14:36:40.802Z,16.79
2023-04-14T14:41:41.855Z,16.80
2023-04-14T14:46:45.152Z,16.75
2023-04-14T14:51:46.315Z,16.69
2023-04-14T14:56:47.226Z,16.57
2023-04-14T15:01:48.277Z,16.43
2023-04-14T15:06:49.622Z,16.26
2023-04-14T15:11:50.697Z,16.02
2023-04-14T15:16:52.613Z,15.79
2023-04-14T15:21:53.954Z,15.63
2023-04-14T15:26:55.423Z,15.48
2023-04-14T15:31:56.417Z,15.33
2023-04-14T15:36:57.830Z,15.10
2023-04-14T15:41:58.786Z,14.88
2023-04-14T15:47:01.612Z,14.64
2023-04-14T15:52:02.621Z,14.47
2023-04-14T15:57:04.045Z,14.32
2023-04-14T16:02:05.330Z,14.18
2023-04-14T16:07:06.340Z,13.96
2023-04-14T16:12:13.725Z,13.72
2023-04-14T16:17:14.683Z,13.53
2023-04-14T16:22:15.841Z,13.40
2023-04-14T16:27:17.068Z,13.27
2023-04-14T16:32:18.205Z,13.17
2023-04-14T16:37:20.121Z,13.09
2023-04-14T16:42:25.516Z,12.99
2023-04-14T16:47:27.823Z,12.89
2023-04-14T16:52:29.890Z,12.82
2023-04-14T16:57:31.856Z,12.77
2023-04-14T17:02:32.912Z,12.69
2023-04-14T17:07:34.071Z,12.53
2023-04-14T17:12:35.074Z,12.34
2023-04-14T17:17:36.123Z,12.12
2023-04-14T17:22:37.471Z,11.86
2023-04-14T17:27:38.504Z,11.64
2023-04-14T17:32:40.996Z,11.51
2023-04-14T17:37:42.086Z,11.28
2023-04-14T17:42:43.262Z,11.26
2023-04-14T17:47:44.204Z,11.19
2023-04-14T17:52:45.794Z,11.14
2023-04-14T17:57:48.718Z,11.14
2023-04-14T18:02:49.717Z,11.16
2023-04-14T18:07:51.050Z,11.14
2023-04-14T18:12:52.120Z,11.11
2023-04-14T18:18:03.066Z,11.06
2023-04-14T18:23:04.812Z,11.02
2023-04-14T18:28:05.878Z,10.98
2023-04-14T18:33:06.928Z,10.94
2023-04-14T18:38:08.228Z,10.90
2023-04-14T18:43:09.153Z,10.86
2023-04-14T18:48:10.137Z,10.83
2023-04-14T18:53:11.938Z,10.81
2023-04-14T18:58:12.987Z,10.82
2023-04-14T19:03:14.715Z,10.86
2023-04-14T19:08:16.271Z,10.94
2023-04-14T19:13:17.413Z,11.07
2023-04-14T19:18:19.814Z,11.18
2023-04-14T19:23:21.108Z,11.28
2023-04-14T19:28:22.680Z,11.37
2023-04-14T19:33:25.066Z,11.44
2023-04-14T19:38:27.905Z,11.48
2023-04-14T19:43:28.845Z,11.51
2023-04-14T19:48:33.946Z,11.60
2023-04-14T19:53:34.874Z,11.68
2023-04-14T19:58:35.940Z,11.73
2023-04-14T20:03:37.222Z,11.79
2023-04-14T20:08:38.220Z,11.84
2023-04-14T20:13:39.123Z,11.89
2023-04-14T20:18:44.423Z,11.92
2023-04-14T20:23:45.497Z,11.76
2023-04-14T20:28:46.881Z,11.85
2023-04-14T20:33:47.912Z,11.84
2023-04-14T20:38:48.851Z,11.67
2023-04-14T20:43:49.839Z,11.76
2023-04-14T20:48:50.920Z,11.72
2023-04-14T20:53:51.887Z,11.67
2023-04-14T20:58:52.829Z,11.62
2023-04-14T21:03:54.081Z,11.60
2023-04-14T21:08:55.515Z,11.58
2023-04-14T21:15:40.642Z,11.56
2023-04-14T21:19:26.620Z,11.58
2023-04-14T21:24:28.248Z,11.59
2023-04-14T21:29:29.202Z,11.56
2023-04-14T21:34:31.162Z,11.53
2023-04-14T21:39:32.918Z,11.51
2023-04-14T21:44:34.487Z,11.47
2023-04-14T21:49:37.681Z,11.43
2023-04-14T21:54:58.756Z,11.38
2023-04-14T21:59:59.682Z,11.32
2023-04-14T22:05:00.592Z,11.31
2023-04-14T22:10:02.771Z,11.29
2023-04-14T22:15:05.740Z,11.27
2023-04-14T22:20:07.559Z,11.20
2023-04-14T22:25:09.010Z,11.13
2023-04-14T22:30:10.952Z,11.13
2023-04-14T22:35:30.009Z,11.15
2023-04-14T22:40:40.047Z,11.14
2023-04-14T22:45:45.664Z,11.12
2023-04-14T22:50:46.889Z,11.07
2023-04-14T22:55:47.871Z,10.97
2023-04-14T23:00:48.829Z,10.89
2023-04-14T23:05:51.040Z,10.84
2023-04-14T23:10:56.832Z,10.80
2023-04-14T23:16:05.182Z,10.77
2023-04-14T23:21:06.155Z,10.71
2023-04-14T23:26:07.460Z,10.66
2023-04-14T23:31:08.560Z,10.61
2023-04-14T23:36:09.501Z,10.50
2023-04-14T23:41:11.332Z,10.38
2023-04-14T23:46:32.397Z,10.25
2023-04-14T23:51:35.278Z,10.09
2023-04-14T23:56:36.190Z,9.86
